Time;durP1;ratioP1;P1;durP2;ratioP2;P2;SDS_P1;SDS_P2;PMS_P1;PMS_P2;Temp;Humidity;BMP_temperature;BMP_pressure;BME280_temperature;BME280_humidity;BME280_pressure;Samples;Min_cycle;Max_cycle;Signal;HPM_P1;HPM_P2
2023/07/10 00:00:00;;;;;;;1.63;0.63;;;18.80;99.90;;;;;;4998576;28;20042;-68
2023/07/10 00:02:26;;;;;;;0.60;0.30;;;18.80;99.90;;;;;;5006306;28;20048;-69
2023/07/10 00:04:51;;;;;;;0.38;0.22;;;18.70;99.90;;;;;;4997944;28;20069;-69
2023/07/10 00:07:17;;;;;;;0.77;0.40;;;18.80;99.90;;;;;;5000984;28;20108;-68
2023/07/10 00:09:43;;;;;;;1.10;0.40;;;18.80;99.90;;;;;;5002838;28;20046;-68
2023/07/10 00:12:21;;;;;;;0.82;0.43;;;18.80;99.90;;;;;;5001804;28;20390;-69
2023/07/10 00:14:47;;;;;;;1.73;0.43;;;18.80;99.90;;;;;;4993013;28;20042;-68
2023/07/10 00:17:15;;;;;;;0.68;0.32;;;18.80;99.90;;;;;;5003830;28;20049;-69
2023/07/10 00:19:41;;;;;;;0.50;0.38;;;18.80;99.90;;;;;;5005967;28;20049;-68
2023/07/10 00:22:07;;;;;;;0.43;0.30;;;18.80;99.90;;;;;;5004914;28;20046;-68
2023/07/10 00:24:32;;;;;;;0.57;0.32;;;18.80;99.90;;;;;;5000434;28;20042;-69
2023/07/10 00:26:58;;;;;;;1.58;0.43;;;18.80;99.90;;;;;;4999333;28;20628;-69
2023/07/10 00:29:31;;;;;;;0.77;0.50;;;18.80;99.90;;;;;;5005630;28;20050;-69
2023/07/10 00:31:58;;;;;;;1.00;0.40;;;18.70;99.90;;;;;;5007154;28;20042;-68
2023/07/10 00:34:25;;;;;;;0.70;0.35;;;18.80;99.90;;;;;;5004565;28;20046;-69
2023/07/10 00:36:52;;;;;;;1.15;0.70;;;18.80;99.90;;;;;;5002287;28;20034;-69
2023/07/10 00:39:20;;;;;;;0.32;0.22;;;18.80;99.90;;;;;;5006040;28;20039;-68
2023/07/10 00:42:10;;;;;;;0.60;0.40;;;18.80;99.90;;;;;;5007462;28;20042;-69
2023/07/10 00:44:41;;;;;;;1.23;0.80;;;18.80;99.90;;;;;;4997793;28;20133;-68
2023/07/10 00:47:32;;;;;;;0.77;0.40;;;18.80;99.90;;;;;;5009449;28;20517;-69
2023/07/10 00:50:08;;;;;;;0.80;0.50;;;18.80;99.90;;;;;;5004143;28;20038;-69
2023/07/10 00:52:46;;;;;;;0.55;0.28;;;18.80;99.90;;;;;;5006114;28;20034;-69
2023/07/10 00:55:30;;;;;;;1.23;0.60;;;18.80;99.90;;;;;;5001750;28;20127;-68
2023/07/10 00:58:23;;;;;;;0.65;0.30;;;18.80;99.90;;;;;;5008726;28;20060;-68
2023/07/10 01:01:15;;;;;;;0.93;0.70;;;18.70;99.90;;;;;;5004321;28;20425;-68
2023/07/10 01:03:43;;;;;;;2.28;1.02;;;18.80;99.90;;;;;;5018330;28;20042;-69
2023/07/10 01:06:22;;;;;;;1.35;0.65;;;18.70;99.90;;;;;;5006183;28;20045;-68
2023/07/10 01:09:08;;;;;;;1.17;0.45;;;18.80;99.90;;;;;;5005782;28;20100;-68
2023/07/10 01:11:36;;;;;;;0.50;0.38;;;18.70;99.90;;;;;;5004291;28;20057;-68
2023/07/10 01:14:05;;;;;;;1.17;0.65;;;18.70;99.90;;;;;;5000080;28;20387;-69
2023/07/10 01:16:31;;;;;;;0.63;0.50;;;18.70;99.90;;;;;;5002457;28;20042;-69
2023/07/10 01:18:57;;;;;;;0.65;0.35;;;18.70;99.90;;;;;;5006573;28;20049;-69
2023/07/10 01:21:31;;;;;;;1.63;1.10;;;18.70;99.90;;;;;;5003846;28;20113;-68
2023/07/10 01:24:03;;;;;;;1.58;1.08;;;18.70;99.90;;;;;;5000034;28;20609;-68
2023/07/10 01:26:30;;;;;;;2.53;1.15;;;18.70;99.90;;;;;;5004771;28;20050;-69
2023/07/10 01:28:57;;;;;;;0.98;0.60;;;18.70;99.90;;;;;;5005288;28;20046;-68
2023/07/10 01:31:25;;;;;;;0.90;0.68;;;18.70;99.90;;;;;;4999326;28;20039;-68
2023/07/10 01:33:57;;;;;;;0.55;0.40;;;18.60;99.90;;;;;;5002929;28;20621;-69
2023/07/10 01:36:26;;;;;;;0.77;0.65;;;18.70;99.90;;;;;;5004598;28;20437;-68
2023/07/10 01:39:25;;;;;;;1.20;0.82;;;18.60;99.90;;;;;;5000546;28;20486;-68
2023/07/10 01:41:51;;;;;;;2.00;1.25;;;18.60;99.90;;;;;;5004129;28;20053;-69
2023/07/10 01:44:32;;;;;;;2.58;1.52;;;18.60;99.90;;;;;;5000249;28;20393;-68
2023/07/10 01:47:00;;;;;;;2.78;1.20;;;18.60;99.90;;;;;;5006516;28;20045;-68
2023/07/10 01:49:28;;;;;;;2.78;0.90;;;18.50;99.90;;;;;;5005726;28;20093;-68
2023/07/10 01:51:56;;;;;;;1.15;0.57;;;18.50;99.90;;;;;;5003610;28;20030;-69
2023/07/10 01:54:22;;;;;;;1.23;0.82;;;18.60;99.90;;;;;;5000789;28;20061;-68
2023/07/10 01:56:48;;;;;;;1.20;0.75;;;18.50;99.90;;;;;;5004396;28;20047;-69
2023/07/10 01:59:14;;;;;;;0.98;0.85;;;18.50;99.90;;;;;;4996292;28;20046;-68
2023/07/10 02:01:40;;;;;;;1.20;0.75;;;18.50;99.90;;;;;;5006422;28;20049;-68
2023/07/10 02:04:06;;;;;;;1.00;0.70;;;18.50;99.90;;;;;;5001841;28;20067;-69
2023/07/10 02:06:36;;;;;;;2.00;0.60;;;18.50;99.90;;;;;;5006445;28;20045;-69
2023/07/10 02:09:04;;;;;;;1.63;0.90;;;18.50;99.90;;;;;;5000481;28;20049;-68
2023/07/10 02:11:30;;;;;;;1.05;0.75;;;18.50;99.90;;;;;;5002519;28;20046;-68
2023/07/10 02:13:55;;;;;;;1.58;0.68;;;18.50;99.90;;;;;;5002547;28;20041;-69
2023/07/10 02:16:21;;;;;;;0.65;0.32;;;18.50;99.90;;;;;;5002024;28;20497;-68
2023/07/10 02:18:47;;;;;;;1.42;0.85;;;18.50;99.90;;;;;;5003238;28;20113;-68
2023/07/10 02:21:12;;;;;;;1.52;0.82;;;18.50;99.90;;;;;;5006338;28;20046;-69
2023/07/10 02:23:39;;;;;;;0.60;0.50;;;18.50;99.90;;;;;;5003283;28;20053;-69
2023/07/10 02:26:04;;;;;;;1.45;0.90;;;18.50;99.90;;;;;;5002193;28;20034;-68
2023/07/10 02:28:31;;;;;;;1.10;0.57;;;18.50;99.90;;;;;;4999804;28;20100;-69
2023/07/10 02:30:56;;;;;;;1.02;0.52;;;18.50;99.90;;;;;;5005793;28;20034;-69
2023/07/10 02:33:22;;;;;;;0.95;0.68;;;18.50;99.90;;;;;;5000840;28;20045;-68
2023/07/10 02:35:48;;;;;;;2.80;1.00;;;18.50;99.90;;;;;;5002114;28;20109;-68
2023/07/10 02:38:15;;;;;;;1.00;0.57;;;18.40;99.90;;;;;;4999870;28;20121;-69
2023/07/10 02:40:43;;;;;;;0.47;0.38;;;18.40;99.90;;;;;;5004140;28;20034;-68
2023/07/10 02:43:09;;;;;;;1.40;0.90;;;18.40;99.90;;;;;;5006964;28;20038;-68
2023/07/10 02:45:35;;;;;;;1.25;0.70;;;18.40;99.90;;;;;;5002934;28;20096;-69
2023/07/10 02:48:01;;;;;;;1.10;0.60;;;18.40;99.90;;;;;;4991409;28;20052;-68
2023/07/10 02:50:27;;;;;;;1.83;0.77;;;18.40;99.90;;;;;;5004827;28;20038;-68
2023/07/10 02:52:53;;;;;;;0.52;0.30;;;18.40;99.90;;;;;;5009103;28;20124;-69
2023/07/10 02:55:18;;;;;;;1.75;0.70;;;18.30;99.90;;;;;;5001629;28;20034;-68
2023/07/10 02:57:44;;;;;;;0.73;0.50;;;18.30;99.90;;;;;;5003461;28;20101;-69
2023/07/10 03:00:10;;;;;;;0.60;0.32;;;18.30;99.90;;;;;;4996524;28;20084;-69
2023/07/10 03:02:36;;;;;;;1.00;0.52;;;18.30;99.90;;;;;;5005074;28;20041;-69
2023/07/10 03:05:03;;;;;;;4.22;0.65;;;18.20;99.90;;;;;;5008138;28;20554;-68
2023/07/10 03:07:30;;;;;;;0.98;0.47;;;18.30;99.90;;;;;;5000818;28;20784;-69
2023/07/10 03:09:56;;;;;;;1.83;0.65;;;18.20;99.90;;;;;;5004671;28;20038;-69
2023/07/10 03:12:21;;;;;;;1.55;0.70;;;18.20;99.90;;;;;;5004142;28;20501;-68
2023/07/10 03:14:48;;;;;;;0.75;0.40;;;18.20;99.90;;;;;;5000492;28;20505;-68
2023/07/10 03:17:14;;;;;;;1.65;0.90;;;18.20;99.90;;;;;;5003796;28;20527;-68
2023/07/10 03:19:40;;;;;;;0.90;0.30;;;18.20;99.90;;;;;;5001140;28;20125;-69
2023/07/10 03:22:05;;;;;;;1.08;0.50;;;18.20;99.90;;;;;;5003163;28;20118;-69
2023/07/10 03:24:31;;;;;;;1.35;0.65;;;18.20;99.90;;;;;;4999109;28;20119;-68
2023/07/10 03:26:57;;;;;;;1.08;0.60;;;18.10;99.90;;;;;;4997408;28;20038;-68
2023/07/10 03:29:23;;;;;;;1.30;0.57;;;18.20;99.90;;;;;;5003675;28;20118;-68
2023/07/10 03:31:48;;;;;;;0.98;0.30;;;18.10;99.90;;;;;;5000972;28;20099;-68
2023/07/10 03:34:14;;;;;;;0.52;0.40;;;18.10;99.90;;;;;;5008387;28;20034;-68
2023/07/10 03:36:40;;;;;;;0.70;0.40;;;18.10;99.90;;;;;;5001051;28;20489;-69
2023/07/10 03:39:07;;;;;;;0.77;0.52;;;18.10;99.90;;;;;;5000531;28;20070;-68
2023/07/10 03:41:34;;;;;;;1.10;0.60;;;18.10;99.90;;;;;;4999789;28;20038;-69
2023/07/10 03:43:59;;;;;;;1.65;0.43;;;18.10;99.90;;;;;;4999633;28;20057;-68
2023/07/10 03:46:25;;;;;;;0.93;0.73;;;18.10;99.90;;;;;;5003519;28;20490;-68
2023/07/10 03:48:51;;;;;;;0.70;0.45;;;18.00;99.90;;;;;;5003900;28;20047;-68
2023/07/10 03:51:18;;;;;;;0.98;0.57;;;18.10;99.90;;;;;;5005199;28;20034;-68
2023/07/10 03:53:45;;;;;;;0.93;0.52;;;18.00;99.90;;;;;;5001728;28;20057;-69
2023/07/10 03:56:10;;;;;;;1.08;0.70;;;18.00;99.90;;;;;;5004283;28;20042;-68
2023/07/10 03:58:40;;;;;;;0.65;0.45;;;18.10;99.90;;;;;;5006445;28;20054;-68
2023/07/10 04:01:07;;;;;;;1.20;0.52;;;18.10;99.90;;;;;;5007144;28;20038;-69
2023/07/10 04:03:37;;;;;;;0.77;0.45;;;18.00;99.90;;;;;;5002887;28;20498;-68
2023/07/10 04:06:04;;;;;;;0.93;0.47;;;18.10;99.90;;;;;;5005863;28;20109;-68
2023/07/10 04:08:35;;;;;;;1.15;0.73;;;18.00;99.90;;;;;;5009118;28;20128;-68
2023/07/10 04:11:09;;;;;;;0.80;0.50;;;18.10;99.90;;;;;;5004080;28;20456;-68
2023/07/10 04:13:35;;;;;;;1.02;0.50;;;18.10;99.90;;;;;;5007588;28;20040;-68
2023/07/10 04:16:03;;;;;;;1.20;0.60;;;18.10;99.90;;;;;;5005461;28;20025;-68
2023/07/10 04:18:34;;;;;;;0.60;0.40;;;18.10;99.90;;;;;;5004265;28;20045;-68
2023/07/10 04:21:01;;;;;;;0.70;0.32;;;18.10;99.90;;;;;;5003792;28;20123;-68
2023/07/10 04:23:28;;;;;;;1.02;0.47;;;18.10;99.90;;;;;;5008349;28;20492;-69
2023/07/10 04:25:54;;;;;;;0.40;0.30;;;18.20;99.90;;;;;;5004880;28;20117;-68
2023/07/10 04:28:20;;;;;;;0.30;0.25;;;18.10;99.90;;;;;;5007277;28;20050;-68
2023/07/10 04:30:47;;;;;;;1.00;0.45;;;18.20;99.90;;;;;;5004818;28;20026;-68
2023/07/10 04:33:16;;;;;;;1.52;0.50;;;18.20;99.90;;;;;;5002092;28;20042;-68
2023/07/10 04:35:43;;;;;;;1.35;0.70;;;18.30;99.90;;;;;;5005847;28;20037;-68
2023/07/10 04:38:09;;;;;;;0.80;0.50;;;18.30;99.90;;;;;;5005142;28;20041;-68
2023/07/10 04:40:35;;;;;;;1.45;0.70;;;18.30;99.90;;;;;;5000403;28;20660;-69
2023/07/10 04:43:03;;;;;;;0.55;0.45;;;18.30;99.90;;;;;;5001571;28;20038;-68
2023/07/10 04:45:28;;;;;;;0.63;0.30;;;18.30;99.90;;;;;;5004377;28;20034;-68
2023/07/10 04:47:54;;;;;;;1.23;0.40;;;18.30;99.90;;;;;;5003397;28;20046;-68
2023/07/10 04:50:21;;;;;;;0.40;0.30;;;18.30;99.90;;;;;;5007757;28;20073;-68
2023/07/10 04:52:47;;;;;;;0.82;0.50;;;18.30;99.90;;;;;;5001482;28;20087;-68
2023/07/10 04:55:13;;;;;;;0.68;0.40;;;18.30;99.90;;;;;;5009099;28;20107;-68
2023/07/10 04:57:38;;;;;;;0.60;0.30;;;18.40;99.90;;;;;;5007196;28;20054;-68
2023/07/10 05:00:05;;;;;;;0.30;0.20;;;18.30;99.90;;;;;;5008259;28;20046;-68
2023/07/10 05:02:31;;;;;;;0.70;0.32;;;18.30;99.90;;;;;;5005476;28;20039;-68
2023/07/10 05:04:57;;;;;;;0.25;0.10;;;18.30;99.90;;;;;;5004869;28;20108;-68
2023/07/10 05:07:23;;;;;;;0.45;0.13;;;18.20;99.90;;;;;;5006316;28;20057;-68
2023/07/10 05:09:48;;;;;;;0.47;0.25;;;18.20;99.90;;;;;;5002223;28;20122;-67
2023/07/10 05:12:15;;;;;;;0.85;0.15;;;18.20;99.90;;;;;;5001448;28;20450;-68
2023/07/10 05:14:41;;;;;;;0.38;0.20;;;18.20;99.90;;;;;;5003974;28;20042;-68
2023/07/10 05:17:06;;;;;;;0.10;0.00;;;18.20;99.90;;;;;;5004623;28;20081;-68
2023/07/10 05:19:33;;;;;;;0.57;0.20;;;18.10;99.90;;;;;;5009442;28;20045;-68
2023/07/10 05:22:01;;;;;;;0.10;0.10;;;18.10;99.90;;;;;;5005788;28;20047;-68
2023/07/10 05:24:27;;;;;;;0.05;0.00;;;18.10;99.90;;;;;;5004315;28;20363;-68
2023/07/10 05:26:53;;;;;;;0.22;0.10;;;18.10;99.90;;;;;;5006578;28;20065;-68
2023/07/10 05:29:18;;;;;;;0.05;0.00;;;18.10;99.90;;;;;;4999692;28;20038;-68
2023/07/10 05:31:44;;;;;;;0.10;0.08;;;18.10;99.90;;;;;;5001487;28;20526;-68
2023/07/10 05:34:10;;;;;;;2.03;0.88;;;18.10;99.90;;;;;;5004215;28;20088;-67
2023/07/10 05:36:35;;;;;;;0.10;0.03;;;18.20;99.90;;;;;;5006237;28;20034;-68
2023/07/10 05:39:02;;;;;;;0.10;0.00;;;18.20;99.90;;;;;;4999850;28;20038;-68
2023/07/10 05:41:29;;;;;;;0.30;0.10;;;18.20;99.90;;;;;;5006798;28;20522;-68
2023/07/10 05:43:55;;;;;;;0.08;0.00;;;18.20;99.90;;;;;;5010063;28;20073;-68
2023/07/10 05:46:21;;;;;;;0.22;0.08;;;18.20;99.90;;;;;;5007838;28;20393;-68
2023/07/10 05:48:46;;;;;;;0.00;0.00;;;18.20;99.90;;;;;;5001732;28;20030;-67
2023/07/10 05:51:12;;;;;;;0.00;0.00;;;18.30;99.90;;;;;;5001072;28;20049;-67
2023/07/10 05:53:38;;;;;;;0.17;0.00;;;18.40;99.90;;;;;;5007885;28;20050;-68
2023/07/10 05:56:04;;;;;;;0.13;0.13;;;18.40;99.90;;;;;;5007677;28;20133;-68
2023/07/10 05:58:31;;;;;;;0.00;0.00;;;18.40;99.90;;;;;;5006990;28;20038;-68
2023/07/10 06:00:59;;;;;;;0.32;0.05;;;18.40;99.90;;;;;;5007628;28;20090;-68
2023/07/10 06:03:26;;;;;;;0.20;0.08;;;18.40;99.90;;;;;;4990460;28;20045;-68
2023/07/10 06:05:57;;;;;;;0.10;0.00;;;18.40;99.90;;;;;;5006328;28;20057;-68
2023/07/10 06:08:24;;;;;;;0.00;0.00;;;18.40;99.90;;;;;;5006169;28;20494;-68
2023/07/10 06:10:50;;;;;;;0.10;0.00;;;18.60;99.90;;;;;;5006717;28;20379;-68
2023/07/10 06:13:16;;;;;;;0.00;0.00;;;18.60;99.90;;;;;;5008230;28;20432;-68
2023/07/10 06:15:43;;;;;;;0.00;0.00;;;18.80;99.90;;;;;;5000969;28;20073;-68
2023/07/10 06:18:09;;;;;;;0.10;0.00;;;18.90;99.90;;;;;;5000382;28;20046;-68
2023/07/10 06:20:35;;;;;;;0.20;0.10;;;18.90;99.90;;;;;;5004568;28;20044;-69
2023/07/10 06:23:00;;;;;;;0.45;0.10;;;19.00;99.90;;;;;;5001520;28;20037;-68
2023/07/10 06:25:26;;;;;;;0.47;0.00;;;19.10;99.90;;;;;;5001534;28;20108;-68
2023/07/10 06:27:52;;;;;;;0.10;0.00;;;19.20;99.90;;;;;;5003104;28;20545;-68
2023/07/10 06:30:17;;;;;;;0.10;0.00;;;19.20;99.90;;;;;;5006468;28;20034;-68
2023/07/10 06:32:43;;;;;;;0.22;0.08;;;19.20;99.90;;;;;;4998066;28;20058;-68
2023/07/10 06:35:12;;;;;;;0.15;0.10;;;19.30;99.90;;;;;;4997669;28;20116;-69
2023/07/10 06:37:40;;;;;;;0.15;0.10;;;19.40;99.90;;;;;;4993590;28;20410;-69
2023/07/10 06:40:09;;;;;;;0.03;0.00;;;19.50;99.90;;;;;;5003124;28;20379;-68
2023/07/10 06:42:35;;;;;;;0.00;0.00;;;19.40;99.90;;;;;;4996715;28;20130;-68
2023/07/10 06:45:01;;;;;;;0.00;0.00;;;19.40;99.90;;;;;;4998667;28;20042;-68
2023/07/10 06:47:30;;;;;;;0.00;0.00;;;19.50;99.90;;;;;;4997148;28;20060;-68
2023/07/10 06:49:56;;;;;;;0.30;0.00;;;19.50;99.90;;;;;;5002451;28;20125;-68
2023/07/10 06:52:21;;;;;;;0.10;0.03;;;19.50;99.90;;;;;;5002751;28;20463;-68
2023/07/10 06:54:47;;;;;;;0.10;0.10;;;19.60;99.90;;;;;;4997155;28;20100;-68
2023/07/10 06:57:13;;;;;;;0.10;0.00;;;19.70;99.90;;;;;;4999867;28;20049;-68
2023/07/10 06:59:39;;;;;;;0.15;0.10;;;19.90;99.90;;;;;;5000895;28;20401;-68
2023/07/10 07:02:05;;;;;;;0.20;0.00;;;20.00;99.90;;;;;;5000702;28;20042;-68
2023/07/10 07:04:31;;;;;;;0.40;0.00;;;20.20;99.90;;;;;;4998221;28;20425;-68
2023/07/10 07:06:57;;;;;;;0.43;0.25;;;20.30;99.90;;;;;;5003665;28;20042;-67
2023/07/10 07:09:23;;;;;;;0.35;0.10;;;20.30;99.90;;;;;;5002483;28;20042;-67
2023/07/10 07:11:48;;;;;;;0.00;0.00;;;20.50;99.90;;;;;;5002045;28;20095;-68
2023/07/10 07:14:14;;;;;;;0.47;0.17;;;20.60;99.90;;;;;;4993466;28;20050;-67
2023/07/10 07:16:40;;;;;;;0.00;0.00;;;20.70;99.90;;;;;;5001232;28;20558;-67
2023/07/10 07:19:05;;;;;;;0.10;0.00;;;20.70;99.90;;;;;;5003610;28;20030;-67
2023/07/10 07:21:31;;;;;;;0.38;0.10;;;20.80;99.90;;;;;;5001908;28;20099;-67
2023/07/10 07:23:57;;;;;;;0.10;0.00;;;20.90;99.90;;;;;;4994339;28;20038;-67
2023/07/10 07:26:24;;;;;;;0.00;0.00;;;21.00;99.90;;;;;;5009331;28;20451;-67
2023/07/10 07:28:50;;;;;;;0.15;0.10;;;21.00;99.90;;;;;;5007014;28;20414;-67
2023/07/10 07:31:16;;;;;;;0.10;0.00;;;21.10;99.90;;;;;;5007855;28;20034;-68
2023/07/10 07:33:42;;;;;;;0.10;0.00;;;21.10;99.90;;;;;;5012923;28;20046;-68
2023/07/10 07:36:08;;;;;;;1.45;0.00;;;21.20;99.90;;;;;;5007088;28;20386;-68
2023/07/10 07:38:33;;;;;;;0.00;0.00;;;21.30;99.90;;;;;;5021080;28;20041;-68
2023/07/10 07:40:59;;;;;;;0.50;0.30;;;21.40;99.90;;;;;;5008074;28;20448;-68
2023/07/10 07:43:26;;;;;;;0.28;0.08;;;21.50;99.90;;;;;;5004516;28;20458;-68
2023/07/10 07:45:56;;;;;;;0.00;0.00;;;21.60;99.90;;;;;;5007731;28;20097;-69
2023/07/10 07:48:24;;;;;;;0.10;0.00;;;21.60;99.90;;;;;;5007786;28;20054;-69
2023/07/10 07:51:10;;;;;;;0.00;0.00;;;21.70;99.90;;;;;;5008149;28;20049;-69
2023/07/10 07:53:41;;;;;;;2.50;0.00;;;21.70;99.90;;;;;;5001012;28;20070;-70
2023/07/10 07:56:07;;;;;;;0.10;0.10;;;21.80;99.90;;;;;;5004319;28;20508;-70
2023/07/10 07:58:32;;;;;;;0.38;0.10;;;21.90;99.90;;;;;;5008678;28;20125;-70
2023/07/10 08:00:59;;;;;;;0.75;0.00;;;22.00;99.90;;;;;;5005750;28;20149;-70
2023/07/10 08:03:26;;;;;;;0.20;0.10;;;22.20;99.90;;;;;;4998203;28;20053;-70
2023/07/10 08:05:52;;;;;;;0.52;0.10;;;22.20;99.90;;;;;;5004625;28;20048;-70
2023/07/10 08:08:18;;;;;;;0.00;0.00;;;22.20;99.90;;;;;;5001631;28;20054;-70
2023/07/10 08:10:47;;;;;;;0.32;0.00;;;22.20;99.90;;;;;;5001338;28;20034;-68
2023/07/10 08:13:13;;;;;;;0.30;0.13;;;22.40;99.90;;;;;;5001959;28;20096;-68
2023/07/10 08:15:40;;;;;;;0.88;0.25;;;22.60;99.90;;;;;;5005380;28;20121;-68
2023/07/10 08:18:07;;;;;;;0.00;0.00;;;22.70;99.90;;;;;;5009932;28;20035;-70
2023/07/10 08:20:33;;;;;;;0.17;0.10;;;22.70;99.90;;;;;;4999690;28;20548;-70
2023/07/10 08:22:59;;;;;;;0.20;0.10;;;22.70;99.90;;;;;;5000135;28;20046;-70
2023/07/10 08:25:25;;;;;;;0.00;0.00;;;22.90;99.90;;;;;;5007193;28;20068;-70
2023/07/10 08:27:51;;;;;;;0.00;0.00;;;22.90;99.90;;;;;;5001384;28;20050;-70
2023/07/10 08:30:17;;;;;;;0.05;0.00;;;23.00;99.90;;;;;;5002222;28;20045;-71
2023/07/10 08:32:42;;;;;;;0.10;0.03;;;23.10;99.90;;;;;;5000855;28;20030;-71
2023/07/10 08:35:08;;;;;;;0.45;0.20;;;23.20;99.90;;;;;;5005889;28;20070;-71
2023/07/10 08:37:38;;;;;;;0.43;0.13;;;23.30;99.90;;;;;;5000762;28;20042;-70
2023/07/10 08:40:17;;;;;;;0.00;0.00;;;23.40;99.90;;;;;;5001500;28;20041;-71
2023/07/10 08:42:43;;;;;;;0.00;0.00;;;23.40;99.90;;;;;;5008309;28;20045;-71
2023/07/10 08:45:16;;;;;;;0.00;0.00;;;23.60;99.90;;;;;;5006451;28;20105;-70
2023/07/10 08:47:50;;;;;;;0.20;0.00;;;23.90;99.90;;;;;;5001382;28;20100;-71
2023/07/10 08:50:28;;;;;;;0.10;0.00;;;23.90;99.90;;;;;;5010403;28;20085;-71
2023/07/10 08:53:19;;;;;;;0.00;0.00;;;23.70;99.90;;;;;;5003991;28;20100;-70
2023/07/10 08:55:50;;;;;;;0.60;0.00;;;23.90;99.90;;;;;;5005025;28;20146;-70
2023/07/10 08:58:27;;;;;;;0.32;0.13;;;24.20;99.90;;;;;;5006285;28;20108;-71
2023/07/10 09:00:59;;;;;;;0.32;0.00;;;24.50;99.90;;;;;;5005302;28;20422;-70
2023/07/10 09:03:45;;;;;;;0.00;0.00;;;24.80;99.90;;;;;;5003132;28;20046;-70
2023/07/10 09:06:18;;;;;;;0.00;0.00;;;24.70;99.90;;;;;;5004450;28;20112;-70
2023/07/10 09:08:50;;;;;;;0.90;0.20;;;24.40;99.90;;;;;;5001163;28;20072;-70
2023/07/10 09:11:17;;;;;;;0.00;0.00;;;24.30;99.90;;;;;;5005596;28;20485;-70
2023/07/10 09:14:50;;;;;;;0.20;0.10;;;24.50;99.90;;;;;;5005895;28;20497;-70
2023/07/10 09:17:40;;;;;;;0.03;0.00;;;24.90;99.90;;;;;;4985571;28;20046;-70
2023/07/10 09:20:10;;;;;;;1.05;0.38;;;25.10;99.90;;;;;;4960415;28;20054;-70
2023/07/10 09:22:37;;;;;;;1.23;0.08;;;25.40;99.90;;;;;;5002198;28;20133;-70
2023/07/10 09:25:12;;;;;;;0.30;0.20;;;25.40;99.90;;;;;;5008936;28;20041;-70
2023/07/10 09:27:40;;;;;;;0.70;0.20;;;25.20;99.90;;;;;;4996569;28;20034;-70
2023/07/10 09:30:19;;;;;;;0.63;0.22;;;25.10;99.90;;;;;;5003275;28;20041;-67
2023/07/10 09:32:45;;;;;;;0.00;0.00;;;25.10;99.90;;;;;;5003891;28;20046;-68
2023/07/10 09:35:16;;;;;;;0.00;0.00;;;25.00;99.90;;;;;;5002367;28;20048;-69
2023/07/10 09:37:47;;;;;;;1.65;0.25;;;25.20;99.90;;;;;;4998877;28;20116;-69
2023/07/10 09:40:34;;;;;;;0.10;0.00;;;25.50;99.90;;;;;;5009058;28;20536;-69
2023/07/10 09:43:15;;;;;;;0.15;0.00;;;25.50;99.90;;;;;;5002149;28;20125;-69
2023/07/10 09:45:48;;;;;;;0.00;0.00;;;25.30;99.90;;;;;;5017006;28;20046;-68
2023/07/10 09:48:26;;;;;;;0.00;0.00;;;25.20;99.90;;;;;;4995845;28;20462;-69
2023/07/10 09:50:53;;;;;;;0.75;0.10;;;25.10;99.90;;;;;;5003391;28;20042;-69
2023/07/10 09:53:31;;;;;;;2.15;0.35;;;24.80;99.90;;;;;;5006995;28;20046;-69
2023/07/10 09:55:58;;;;;;;0.60;0.10;;;24.80;99.90;;;;;;5005108;28;20376;-69
2023/07/10 09:58:25;;;;;;;0.75;0.35;;;24.90;99.90;;;;;;5016653;28;20055;-69
2023/07/10 10:00:51;;;;;;;1.15;0.40;;;25.20;99.90;;;;;;5006125;28;20041;-69
2023/07/10 10:03:38;;;;;;;0.10;0.10;;;25.40;99.90;;;;;;5007409;28;20037;-69
2023/07/10 10:06:04;;;;;;;0.10;0.10;;;25.40;99.90;;;;;;5003889;28;20070;-69
2023/07/10 10:08:34;;;;;;;0.45;0.03;;;25.50;99.90;;;;;;5004066;28;20084;-69
2023/07/10 10:11:08;;;;;;;0.15;0.10;;;25.70;99.90;;;;;;5003805;28;20045;-69
2023/07/10 10:13:51;;;;;;;0.00;0.00;;;25.90;99.90;;;;;;5000693;28;20049;-69
2023/07/10 10:16:31;;;;;;;0.00;0.00;;;26.30;99.90;;;;;;5002760;28;20053;-69
2023/07/10 10:18:58;;;;;;;0.03;0.00;;;26.40;99.90;;;;;;5002991;28;20467;-69
2023/07/10 10:21:25;;;;;;;0.65;0.00;;;26.50;99.90;;;;;;5005255;28;20046;-69
2023/07/10 10:23:57;;;;;;;0.00;0.00;;;26.30;99.90;;;;;;4981326;28;20055;-69
2023/07/10 10:26:41;;;;;;;0.13;0.08;;;26.50;99.90;;;;;;5000257;28;20097;-69
2023/07/10 10:29:12;;;;;;;0.10;0.00;;;26.60;99.90;;;;;;5004817;28;20391;-69
2023/07/10 10:31:41;;;;;;;0.25;0.10;;;26.80;99.90;;;;;;5018975;28;20049;-69
2023/07/10 10:34:33;;;;;;;0.00;0.00;;;27.00;99.90;;;;;;5001119;28;20515;-69
2023/07/10 10:37:16;;;;;;;0.10;0.10;;;27.00;99.90;;;;;;5005562;28;20070;-69
2023/07/10 10:39:57;;;;;;;0.45;0.00;;;26.80;99.90;;;;;;5003299;28;20050;-69
2023/07/10 10:42:41;;;;;;;0.00;0.00;;;26.90;99.90;;;;;;4996800;28;20034;-69
2023/07/10 10:45:33;;;;;;;0.00;0.00;;;26.90;99.90;;;;;;5007313;28;20042;-69
2023/07/10 10:48:10;;;;;;;1.35;0.10;;;26.80;99.90;;;;;;5003432;28;20038;-68
2023/07/10 10:50:45;;;;;;;1.20;0.68;;;26.70;99.90;;;;;;4999895;28;20041;-69
2023/07/10 10:53:40;;;;;;;0.10;0.00;;;26.50;99.90;;;;;;4999228;28;20034;-69
2023/07/10 10:56:18;;;;;;;1.27;0.10;;;26.50;99.90;;;;;;5000447;28;20061;-69
2023/07/10 10:58:59;;;;;;;0.25;0.10;;;26.70;99.90;;;;;;5008076;28;20046;-69
2023/07/10 11:01:36;;;;;;;0.35;0.10;;;27.10;99.90;;;;;;5000588;28;20378;-69
2023/07/10 11:04:17;;;;;;;0.00;0.00;;;27.30;99.90;;;;;;5000375;28;20056;-69
2023/07/10 11:06:53;;;;;;;0.50;0.20;;;27.40;99.90;;;;;;5005581;28;20045;-69
2023/07/10 11:09:43;;;;;;;0.10;0.00;;;27.40;99.90;;;;;;5001043;28;20065;-69
2023/07/10 11:12:17;;;;;;;0.70;0.00;;;27.80;99.90;;;;;;4994866;28;20076;-69
2023/07/10 11:14:44;;;;;;;0.00;0.00;;;28.10;99.90;;;;;;5000628;28;20042;-69
2023/07/10 11:17:11;;;;;;;0.22;0.10;;;28.20;99.90;;;;;;5001353;28;20092;-69
2023/07/10 11:19:37;;;;;;;0.30;0.10;;;27.70;99.90;;;;;;4996520;28;20038;-69
2023/07/10 11:22:29;;;;;;;0.20;0.10;;;27.30;99.90;;;;;;4997496;28;20049;-69
2023/07/10 11:24:55;;;;;;;0.00;0.00;;;27.30;99.90;;;;;;5004538;28;20042;-69
2023/07/10 11:27:35;;;;;;;0.32;0.00;;;27.20;99.00;;;;;;5001788;28;20569;-69
2023/07/10 11:30:04;;;;;;;0.13;0.00;;;27.20;97.70;;;;;;5004348;28;20117;-69
2023/07/10 11:32:35;;;;;;;0.10;0.00;;;27.00;99.90;;;;;;4994502;28;20042;-69
2023/07/10 11:35:19;;;;;;;0.00;0.00;;;26.80;99.90;;;;;;5004493;28;20048;-69
2023/07/10 11:37:48;;;;;;;0.25;0.00;;;26.30;99.90;;;;;;5000045;28;20042;-69
2023/07/10 11:40:28;;;;;;;0.10;0.00;;;26.00;99.90;;;;;;4996237;28;20145;-69
2023/07/10 11:42:56;;;;;;;1.02;0.10;;;26.30;99.90;;;;;;5001431;28;20092;-69
2023/07/10 11:45:36;;;;;;;0.00;0.00;;;26.80;99.90;;;;;;5001248;28;20061;-69
2023/07/10 11:48:02;;;;;;;0.32;0.22;;;27.40;99.90;;;;;;5001839;28;20037;-69
2023/07/10 11:50:29;;;;;;;0.00;0.00;;;27.50;99.90;;;;;;5002243;28;20398;-69
2023/07/10 11:53:20;;;;;;;0.00;0.00;;;27.60;99.90;;;;;;4999828;28;20038;-66
2023/07/10 11:55:58;;;;;;;0.80;0.30;;;27.70;95.10;;;;;;5003620;28;20060;-66
2023/07/10 11:58:27;;;;;;;0.05;0.03;;;27.80;99.90;;;;;;5000829;28;20129;-66
2023/07/10 12:01:14;;;;;;;0.00;0.00;;;27.90;99.90;;;;;;4996046;28;20049;-66
2023/07/10 12:03:42;;;;;;;0.28;0.20;;;28.00;99.90;;;;;;5001454;28;20111;-66
2023/07/10 12:06:23;;;;;;;1.98;0.00;;;27.90;91.40;;;;;;5001705;28;20045;-66
2023/07/10 12:08:52;;;;;;;0.00;0.00;;;27.80;99.90;;;;;;4997108;28;20073;-67
2023/07/10 12:11:35;;;;;;;0.10;0.00;;;27.80;93.00;;;;;;5002895;28;20038;-65
2023/07/10 12:14:11;;;;;;;0.00;0.00;;;27.50;93.00;;;;;;5002505;28;20097;-66
2023/07/10 12:16:57;;;;;;;0.85;0.00;;;27.30;95.10;;;;;;5004290;28;20460;-66
2023/07/10 12:19:36;;;;;;;0.22;0.10;;;27.50;97.60;;;;;;5001365;28;20399;-66
2023/07/10 12:22:12;;;;;;;0.20;0.10;;;27.70;96.40;;;;;;5002574;28;20044;-67
2023/07/10 12:24:38;;;;;;;0.00;0.00;;;27.70;93.50;;;;;;5007167;28;20042;-66
2023/07/10 12:27:04;;;;;;;0.50;0.10;;;27.70;96.70;;;;;;5004714;28;20109;-65
2023/07/10 12:29:30;;;;;;;0.20;0.10;;;27.40;93.60;;;;;;5004136;28;20046;-65
2023/07/10 12:31:56;;;;;;;0.38;0.00;;;27.20;97.70;;;;;;5009437;28;20041;-66
2023/07/10 12:34:25;;;;;;;0.00;0.00;;;27.20;88.20;;;;;;5007685;28;20496;-66
2023/07/10 12:36:58;;;;;;;0.60;0.28;;;27.30;92.00;;;;;;5006977;28;20072;-66
2023/07/10 12:39:24;;;;;;;0.00;0.00;;;27.60;98.30;;;;;;5010545;28;20095;-67
2023/07/10 12:41:55;;;;;;;0.00;0.00;;;28.00;87.10;;;;;;5008927;28;20054;-66
2023/07/10 12:44:22;;;;;;;0.73;0.20;;;28.10;97.80;;;;;;5006405;28;20091;-69
2023/07/10 12:46:55;;;;;;;0.00;0.00;;;28.20;99.00;;;;;;5009260;28;20037;-69
2023/07/10 12:49:27;;;;;;;0.05;0.00;;;28.40;90.80;;;;;;5008190;28;20038;-69
2023/07/10 12:51:52;;;;;;;0.05;0.00;;;28.30;85.90;;;;;;5009834;28;20359;-69
2023/07/10 12:54:25;;;;;;;0.00;0.00;;;28.10;96.60;;;;;;5007799;28;20030;-69
2023/07/10 12:56:54;;;;;;;0.40;0.22;;;27.80;84.10;;;;;;5007591;28;20042;-69
2023/07/10 12:59:23;;;;;;;0.00;0.00;;;27.50;85.30;;;;;;5006595;28;20119;-69
2023/07/10 13:01:52;;;;;;;0.15;0.00;;;27.30;90.80;;;;;;5012630;28;20135;-69